Ocean City Inlet, MD NWLON current weather conditions

sailwx.info

Wind from 144 at 12 knots gusting 19

Air temperature 10.6° C
Water temperature 5.6° C

Last reported at 2020-Jan-25 12:42 UTC.
Time now 2020-Jan-25 13:49 UTC

Location: N 38°20' W 075°06'.
View on Google Maps.

See reports from other nearby stations

  
Tides and Currents Weather Stations Pressure Air Temp Water Temp Dewpoint Dewpoint Depression Visibility Wind Speed Wind Dir Waves Ship Positions
date/time (UTC)wind fromknots sea level pressurealtimeterstation pressurevisibilityair tempwater tempwave heightnotes
2020-Jan-25 12:42 144 12 gusting 19 10.6 5.6
2020-Jan-25 12:36 143 13 gusting 20 10.6 5.6
2020-Jan-25 12:30 145 12 gusting 19 10.6 5.6
2020-Jan-25 12:24 140 10 gusting 15 10.6 5.6
2020-Jan-25 12:18 135 11 gusting 19 10.6 5.6
2020-Jan-25 12:12 140 8 gusting 13 10.0 5.6
2020-Jan-25 12:06 139 8 gusting 13 10.0 5.6
2020-Jan-25 12:00 144 9 gusting 14 10.6 5.6
2020-Jan-25 11:54 147 9 gusting 13 10.6 5.6
2020-Jan-25 11:48 155 11 gusting 18 10.6 5.6
2020-Jan-25 11:42 182 9 gusting 16 10.6 5.6
2020-Jan-25 11:36 159 13 gusting 19 11.1 5.6
2020-Jan-25 11:30 205 13 gusting 18 10.6 5.6
2020-Jan-25 11:24 230 11 gusting 14 8.9 5.6
2020-Jan-25 11:18 142 8 gusting 14 9.4 5.6
2020-Jan-25 11:12 135 9 gusting 14 9.4 5.6
2020-Jan-25 11:06 140 9 gusting 13 9.4 5.6
2020-Jan-25 11:00 137 13 gusting 18 10.0 5.6
2020-Jan-25 10:54 138 11 gusting 16 9.4 5.6
2020-Jan-25 10:48 142 7 gusting 13 9.4 5.6
2020-Jan-25 10:42 132 10 gusting 16 9.4 5.6
2020-Jan-25 10:36 139 11 gusting 18 9.4 5.6
2020-Jan-25 10:30 133 11 gusting 18 9.4 5.6
2020-Jan-25 10:24 130 13 gusting 18 9.4 5.6
2020-Jan-25 10:18 135 10 gusting 14 9.4 5.6
2020-Jan-25 10:12 128 12 gusting 16 9.4 5.6
2020-Jan-25 10:06 124 13 gusting 16 9.4 5.6
2020-Jan-25 10:00 124 13 gusting 19 8.9 5.6
2020-Jan-25 09:54 129 13 gusting 19 8.9 5.6
2020-Jan-25 09:48 126 13 gusting 21 9.4 5.6
2020-Jan-25 09:42 121 13 gusting 19 9.4 5.6
2020-Jan-25 09:36 122 15 gusting 22 8.9 5.6
2020-Jan-25 09:30 123 13 gusting 18 9.4 5.6
2020-Jan-25 09:24 131 13 gusting 19 8.9 5.6
2020-Jan-25 09:18 128 13 gusting 19 9.4 5.6
2020-Jan-25 09:12 121 13 gusting 19 8.9 5.6
2020-Jan-25 09:06 121 12 gusting 19 8.9 5.6
2020-Jan-25 09:00 128 12 gusting 17 8.9 5.6
2020-Jan-25 08:54 124 13 gusting 17 9.4 5.6
2020-Jan-25 08:48 122 12 gusting 19 9.4 5.6
2020-Jan-25 08:42 123 13 gusting 18 9.4 5.6
2020-Jan-25 08:36 120 12 gusting 17 9.4 5.6
2020-Jan-25 08:30 124 13 gusting 17 9.4 5.6
2020-Jan-25 08:24 117 11 gusting 17 9.4 5.6
2020-Jan-25 08:18 123 11 gusting 14 8.9 5.6
2020-Jan-25 08:12 121 13 gusting 19 9.4 5.6
2020-Jan-25 08:06 130 13 gusting 19 9.4 5.6
2020-Jan-25 08:00 128 11 gusting 17 8.9 5.6
2020-Jan-25 07:54 132 11 gusting 14 8.9 5.6
2020-Jan-25 07:48 127 11 gusting 16 8.9 5.6
2020-Jan-25 07:42 126 12 gusting 18 9.4 5.6
2020-Jan-25 07:36 121 12 gusting 19 9.4 5.6
2020-Jan-25 07:30 121 13 gusting 19 9.4 5.6
2020-Jan-25 07:24 118 13 gusting 19 9.4 5.6
2020-Jan-25 07:18 119 13 gusting 20 9.4 5.6
2020-Jan-25 07:12 123 12 gusting 17 9.4 5.6
2020-Jan-25 07:06 119 13 gusting 18 9.4 5.6
2020-Jan-25 07:00 120 12 gusting 17 9.4 5.6
2020-Jan-25 06:54 118 11 gusting 18 9.4 5.6
2020-Jan-25 06:48 119 11 gusting 16 9.4 5.6
2020-Jan-25 06:42 120 11 gusting 19 8.9 5.6
2020-Jan-25 06:36 118 11 gusting 17 8.9 5.6
2020-Jan-25 06:30 116 12 gusting 18 9.4 5.6
2020-Jan-25 06:24 119 12 gusting 18 9.4 5.6
2020-Jan-25 06:18 118 13 gusting 18 9.4 5.6
2020-Jan-25 06:12 117 11 gusting 18 8.9 5.6
2020-Jan-25 06:06 114 13 gusting 18 8.9 5.6
2020-Jan-25 06:00 115 12 gusting 19 8.9 5.6
2020-Jan-25 05:54 116 13 gusting 19 8.9 5.6
2020-Jan-25 05:48 114 11 gusting 16 8.9 5.6
2020-Jan-25 05:42 114 11 gusting 17 8.9 5.6
2020-Jan-25 05:36 114 11 gusting 16 8.9 5.6
2020-Jan-25 05:30 116 11 gusting 19 8.9 5.6
2020-Jan-25 05:24 117 12 gusting 17 8.9 5.6
2020-Jan-25 05:18 116 11 gusting 16 8.9 5.6
2020-Jan-25 05:12 115 11 gusting 16 8.9 5.6
2020-Jan-25 05:06 116 11 gusting 19 8.9 5.6
2020-Jan-25 05:00 116 10 gusting 16 8.9 5.6
2020-Jan-25 04:54 115 11 gusting 16 8.9 5.6
2020-Jan-25 04:48 114 11 gusting 17 8.9 5.6
2020-Jan-25 04:42 114 12 gusting 18 8.9 5.6
2020-Jan-25 04:36 113 12 gusting 18 8.9 5.6
2020-Jan-25 04:30 111 13 gusting 18 8.9 5.6
2020-Jan-25 04:24 113 13 gusting 19 8.9 5.6
2020-Jan-25 04:18 112 11 gusting 17 8.9 5.6
2020-Jan-25 04:12 115 10 gusting 15 8.9 5.6
2020-Jan-25 04:06 116 11 gusting 16 8.9 5.6
2020-Jan-25 04:00 117 11 gusting 17 8.9 5.6
2020-Jan-25 03:54 117 11 gusting 16 8.9 5.6
2020-Jan-25 03:48 115 11 gusting 18 8.9 5.6
2020-Jan-25 03:42 116 10 gusting 18 8.9 5.6
2020-Jan-25 03:36 113 12 gusting 17 8.9 5.6
2020-Jan-25 03:30 112 11 gusting 16 8.9 5.6
2020-Jan-25 03:24 114 11 gusting 16 8.9 5.6
2020-Jan-25 03:18 113 11 gusting 16 8.9 5.6
2020-Jan-25 03:12 113 12 gusting 16 8.9 5.6
2020-Jan-25 03:06 113 13 gusting 17 8.9 5.6
2020-Jan-25 03:00 110 11 gusting 14 8.9 5.6
2020-Jan-25 02:54 110 10 gusting 16 8.9 5.6
2020-Jan-25 02:48 110 9 gusting 13 8.9 5.6
2020-Jan-25 02:42 109 10 gusting 13 8.9 5.6
2020-Jan-25 02:36 109 10 gusting 15 8.9 5.6
2020-Jan-25 02:30 109 12 gusting 17 8.9 5.6
2020-Jan-25 02:24 113 11 gusting 14 8.9 5.6
2020-Jan-25 02:18 108 7 gusting 12 8.3 5.6
2020-Jan-25 02:12 106 8 gusting 13 8.3 5.6
2020-Jan-25 02:06 110 11 gusting 14 8.9 5.6
2020-Jan-25 02:00 112 11 gusting 14 8.3 5.6
2020-Jan-25 01:54 114 10 gusting 13 8.9 5.6
2020-Jan-25 01:48 116 10 gusting 14 8.3 5.6
2020-Jan-25 01:42 113 9 gusting 13 8.3 5.6
2020-Jan-25 01:36 114 9 gusting 13 8.3 5.6
2020-Jan-25 01:30 112 8 gusting 13 8.3 5.6
2020-Jan-25 01:24 109 10 gusting 13 8.3 5.6
2020-Jan-25 01:18 111 10 gusting 14 8.3 5.6
2020-Jan-25 01:12 110 11 gusting 15 8.3 5.6
2020-Jan-25 01:06 111 12 gusting 14 8.3 5.6
2020-Jan-25 01:00 111 9 gusting 13 8.3 5.6
2020-Jan-25 00:54 111 11 gusting 15 8.3 5.6
2020-Jan-25 00:48 110 9 gusting 13 8.3 5.6
2020-Jan-25 00:42 113 9 gusting 13 8.3 5.6
2020-Jan-25 00:36 113 7 gusting 12 8.3 5.6
2020-Jan-25 00:30 114 8 gusting 13 8.3 5.6
2020-Jan-25 00:24 119 7 gusting 11 8.3 5.6
2020-Jan-25 00:18 121 8 gusting 13 8.3 5.6
2020-Jan-25 00:12 120 9 gusting 13 8.9 5.6
2020-Jan-25 00:06 118 9 gusting 13 8.9 5.6
2020-Jan-25 00:00 113 9 gusting 13 8.9 5.6
2020-Jan-24 23:42 108 10 gusting 14 8.3 5.6
2020-Jan-24 23:36 111 8 gusting 14 8.3 5.6
2020-Jan-24 23:30 105 7 gusting 12 8.3 5.6
2020-Jan-24 23:24 107 9 gusting 14 8.3 5.6
2020-Jan-24 23:18 106 10 gusting 18 8.3 5.6
2020-Jan-24 23:12 108 9 gusting 15 8.3 5.6
2020-Jan-24 23:06 106 8 gusting 14 8.3 5.6
2020-Jan-24 23:00 108 7 gusting 11 8.3 5.6
2020-Jan-24 22:54 106 7 gusting 11 8.3 5.6
2020-Jan-24 22:48 098 8 gusting 13 8.3 5.6
2020-Jan-24 22:42 100 9 gusting 13 8.3 5.6
2020-Jan-24 22:36 097 9 gusting 13 8.3 5.6
2020-Jan-24 22:30 100 10 gusting 14 8.3 5.6
2020-Jan-24 22:24 098 10 gusting 17 8.3 5.6
2020-Jan-24 22:18 100 10 gusting 15 8.3 5.6
2020-Jan-24 22:12 098 11 gusting 15 8.3 5.6
2020-Jan-24 22:06 098 9 gusting 14 8.3 5.6
2020-Jan-24 22:00 101 10 gusting 18 8.3 5.6
2020-Jan-24 21:54 099 9 gusting 13 8.3 5.6
2020-Jan-24 21:48 098 9 gusting 14 8.3 5.6
2020-Jan-24 21:42 100 9 gusting 15 8.3 5.6
2020-Jan-24 21:36 097 7 gusting 12 8.3 5.6
2020-Jan-24 21:30 097 8 gusting 13 8.3 5.6
2020-Jan-24 21:24 096 9 gusting 16 8.3 5.6
2020-Jan-24 21:18 101 7 gusting 13 8.3 5.6
2020-Jan-24 21:12 104 7 gusting 12 8.3 5.6
2020-Jan-24 21:06 101 7 gusting 11 8.3 5.6
2020-Jan-24 21:00 101 6 gusting 10 8.3 5.6
2020-Jan-24 20:54 102 7 gusting 13 8.3 5.6
2020-Jan-24 20:48 098 7 gusting 14 8.3 5.6
2020-Jan-24 20:42 099 7 gusting 11 8.9 5.6
2020-Jan-24 20:36 101 6 gusting 12 8.9 5.6
2020-Jan-24 20:30 100 8 gusting 13 8.9 5.6
2020-Jan-24 20:24 100 9 gusting 13 8.9 5.6
2020-Jan-24 20:18 098 9 gusting 13 8.9 5.6
2020-Jan-24 20:12 096 7 gusting 12 8.9 5.6
2020-Jan-24 20:06 097 8 gusting 13 8.9 5.6
2020-Jan-24 20:00 099 9 gusting 14 8.9 5.6
2020-Jan-24 19:54 097 9 gusting 14 8.3 5.6
2020-Jan-24 19:48 096 8 gusting 13 8.3 5.6
2020-Jan-24 19:42 091 7 gusting 11 8.3 5.6
2020-Jan-24 19:36 086 10 gusting 14 8.3 5.6
2020-Jan-24 19:30 084 11 gusting 15 8.3 5.6
2020-Jan-24 19:24 082 10 gusting 19 8.3 5.6
2020-Jan-24 19:18 083 8 gusting 16 8.3 5.6
2020-Jan-24 19:12 085 8 gusting 16 8.3 5.6
2020-Jan-24 19:06 082 7 gusting 13 8.3 5.6
2020-Jan-24 19:00 077 9 gusting 14 8.3 5.6
2020-Jan-24 18:54 079 7 gusting 13 8.3 5.6
2020-Jan-24 18:48 086 7 gusting 10 8.3 5.6
2020-Jan-24 18:42 074 10 gusting 13 7.8 5.6
2020-Jan-24 18:36 074 9 gusting 13 7.8 5.6
2020-Jan-24 18:30 072 8 gusting 12 7.8 5.6
2020-Jan-24 18:24 075 7 gusting 11 7.8 5.6
2020-Jan-24 18:18 074 7 gusting 11 7.8 5.6
2020-Jan-24 18:12 075 7 gusting 12 7.8 5.6
2020-Jan-24 18:06 076 8 gusting 12 7.8 5.6
2020-Jan-24 18:00 067 8 gusting 13 7.8 5.6
2020-Jan-24 17:54 066 7 gusting 12 8.3 5.6
2020-Jan-24 17:48 067 7 gusting 11 8.3 5.6
2020-Jan-24 17:42 067 7 gusting 13 8.3 5.0
2020-Jan-24 17:36 069 6 gusting 10 8.3 5.0
2020-Jan-24 17:30 070 7 gusting 11 8.3 5.0
2020-Jan-24 17:24 068 7 gusting 10 8.3 5.0
2020-Jan-24 17:18 070 6 gusting 9 8.3 5.0
2020-Jan-24 17:12 072 5 gusting 10 8.3 5.0
2020-Jan-24 17:06 065 2 gusting 5 8.3 5.0
2020-Jan-24 17:00 062 3 gusting 7 8.3 5.0
2020-Jan-24 16:54 068 4 gusting 7 8.3 5.0
2020-Jan-24 16:48 066 5 gusting 7 8.3 5.0
2020-Jan-24 16:42 070 4 gusting 7 8.3 5.0
2020-Jan-24 16:36 067 4 gusting 8 8.3 5.0
2020-Jan-24 16:30 056 4 gusting 7 8.3 5.0
2020-Jan-24 16:24 054 4 gusting 8 8.3 5.0
2020-Jan-24 16:18 056 3 gusting 7 8.3 5.0
2020-Jan-24 16:12 043 5 gusting 9 8.3 5.0
2020-Jan-24 16:06 058 4 gusting 9 8.3 5.0
2020-Jan-24 16:00 069 6 gusting 10 8.3 5.0
2020-Jan-24 15:54 070 6 gusting 12 8.3 5.0
2020-Jan-24 15:48 068 6 gusting 10 8.3 5.0
2020-Jan-24 15:42 066 6 gusting 10 8.3 5.0
2020-Jan-24 15:36 070 6 gusting 9 8.3 5.0
2020-Jan-24 15:30 070 6 gusting 9 8.3 5.0
2020-Jan-24 15:24 062 4 gusting 7 8.3 5.0
2020-Jan-24 15:18 066 5 gusting 8 8.3 5.0
2020-Jan-24 15:12 063 4 gusting 6 8.3 5.0
2020-Jan-24 15:06 065 5 gusting 8 8.3 5.0
2020-Jan-24 15:00 065 6 gusting 11 8.3 5.0
2020-Jan-24 14:54 068 6 gusting 8 8.3 5.0
2020-Jan-24 14:48 067 5 gusting 8 8.3 5.0
2020-Jan-24 14:42 055 4 gusting 7 8.3 5.0
2020-Jan-24 14:36 068 5 gusting 9 8.3 5.0
2020-Jan-24 14:30 067 6 gusting 10 8.3 5.0
2020-Jan-24 14:24 074 4 gusting 6 8.3 5.0
2020-Jan-24 14:18 045 4 gusting 7 8.3 5.0
2020-Jan-24 14:12 046 3 gusting 8 8.3 5.0
2020-Jan-24 14:06 043 3 gusting 6 8.3 5.0
2020-Jan-24 14:00 039 3 gusting 6 8.3 5.0
2020-Jan-24 13:54 039 3 gusting 5 8.3 5.0
2020-Jan-24 13:48 035 4 gusting 6 7.8 5.0
2020-Jan-24 13:42 041 5 gusting 7 7.8 5.0
2020-Jan-24 13:36 034 4 gusting 6 7.8 5.0
2020-Jan-24 13:30 037 4 gusting 6 7.8 5.0
2020-Jan-24 13:24 047 2 gusting 4 7.8 5.0
2020-Jan-24 13:18 037 4 gusting 6 7.8 5.0
2020-Jan-24 13:12 035 4 gusting 7 7.2 5.0
2020-Jan-24 13:06 034 4 gusting 6 6.7 5.0
2020-Jan-24 13:00 023 5 gusting 6 6.1 5.0
2020-Jan-24 12:54 023 4 gusting 6 6.7 5.0
2020-Jan-24 12:48 025 5 gusting 6 6.1 5.0
2020-Jan-24 12:42 019 6 gusting 7 6.1 5.0
2020-Jan-24 12:36 028 3 gusting 5 6.7 5.0
2020-Jan-24 12:30 031 4 gusting 6 7.2 5.0
2020-Jan-24 12:24 033 4 gusting 6 7.2 5.0
2020-Jan-24 12:18 038 4 gusting 6 7.2 5.0
2020-Jan-24 12:12 044 3 gusting 6 6.7 5.0
2020-Jan-24 12:06 053 2 gusting 6 6.7 5.0
2020-Jan-24 12:00 037 4 gusting 8 6.7 5.0
2020-Jan-24 11:54 038 3 gusting 6 6.7 5.0
2020-Jan-24 11:48 039 4 gusting 6 6.7 5.0
2020-Jan-24 11:42 038 5 gusting 8 6.7 5.0
2020-Jan-24 11:36 048 4 gusting 6 6.7 5.0
2020-Jan-24 11:30 064 4 gusting 9 6.7 5.0
2020-Jan-24 11:24 067 3 gusting 7 6.7 5.0
2020-Jan-24 11:18 058 4 gusting 7 6.7 5.0
2020-Jan-24 11:12 057 3 gusting 8 6.7 5.0
2020-Jan-24 11:06 041 4 gusting 7 6.7 5.0
2020-Jan-24 11:00 043 5 gusting 7 6.7 5.0
2020-Jan-24 10:54 043 4 gusting 6 5.6 5.0
2020-Jan-24 10:48 026 5 gusting 6 5.0 5.0
2020-Jan-24 10:42 019 5 gusting 6 5.0 5.0
2020-Jan-24 10:36 018 6 gusting 7 5.0 5.0
2020-Jan-24 10:30 008 6 gusting 6 5.6 5.0
2020-Jan-24 10:24 015 5 gusting 6 5.6 4.4
2020-Jan-24 10:18 021 4 gusting 6 5.6 4.4
2020-Jan-24 10:12 022 5 gusting 6 5.6 4.4
2020-Jan-24 10:06 019 5 gusting 6 5.6 4.4
2020-Jan-24 10:00 027 5 gusting 7 6.7 4.4
2020-Jan-24 09:54 033 5 gusting 6 6.7 4.4
2020-Jan-24 09:48 031 4 gusting 9 5.6 4.4
2020-Jan-24 09:42 023 4 gusting 6 5.0 4.4
2020-Jan-24 09:36 014 5 gusting 6 5.0 4.4
2020-Jan-24 09:30 018 4 gusting 5 5.0 4.4
2020-Jan-24 09:24 022 4 gusting 6 5.0 4.4
2020-Jan-24 09:18 022 4 gusting 5 5.0 3.9
2020-Jan-24 09:12 021 5 gusting 6 5.0 3.9
2020-Jan-24 09:06 019 5 gusting 6 5.0 3.9
2020-Jan-24 09:00 010 4 gusting 5 5.0 3.9
2020-Jan-24 08:54 015 3 gusting 4 5.0 3.9
2020-Jan-24 08:48 015 4 gusting 5 5.0 3.9
2020-Jan-24 08:42 016 4 gusting 5 5.0 3.9
2020-Jan-24 08:36 016 5 gusting 6 5.0 3.9
2020-Jan-24 08:30 027 4 gusting 6 5.6 3.9
2020-Jan-24 08:24 031 3 gusting 5 5.6 3.9
2020-Jan-24 08:18 035 3 gusting 6 6.1 3.9
2020-Jan-24 08:12 029 3 gusting 6 5.6 3.9
2020-Jan-24 08:06 035 2 gusting 4 5.6 3.9
2020-Jan-24 08:00 031 4 gusting 6 6.1 3.9
2020-Jan-24 07:54 027 4 gusting 6 6.1 3.9
2020-Jan-24 07:48 029 5 gusting 7 6.1 3.9
2020-Jan-24 07:42 035 4 gusting 7 6.1 3.9
2020-Jan-24 07:36 032 4 gusting 6 6.1 3.9
2020-Jan-24 07:30 033 5 gusting 7 6.1 3.9
2020-Jan-24 07:24 035 5 gusting 8 6.1 3.9
2020-Jan-24 07:18 034 4 gusting 7 6.1 3.9
2020-Jan-24 07:12 033 5 gusting 8 6.1 3.9
2020-Jan-24 07:06 035 3 gusting 6 4.4 4.4
2020-Jan-24 07:00 025 4 gusting 6 4.4 4.4
2020-Jan-24 06:54 022 4 gusting 6 4.4 4.4
2020-Jan-24 06:48 013 4 gusting 5 4.4 4.4
2020-Jan-24 06:42 007 4 gusting 5 4.4 4.4
2020-Jan-24 06:36 018 3 gusting 4 4.4 4.4
2020-Jan-24 06:30 024 4 gusting 5 4.4 4.4
2020-Jan-24 06:24 019 4 gusting 6 4.4 4.4
2020-Jan-24 06:18 011 5 gusting 6 4.4 4.4
2020-Jan-24 06:12 011 4 gusting 5 4.4 4.4
2020-Jan-24 06:06 018 3 gusting 4 4.4 4.4
2020-Jan-24 06:00 018 4 gusting 6 4.4 4.4
2020-Jan-24 05:54 017 4 gusting 5 4.4 4.4
2020-Jan-24 05:48 021 4 gusting 5 4.4 4.4
2020-Jan-24 05:42 015 4 gusting 5 5.0 4.4
2020-Jan-24 05:36 018 4 gusting 5 5.0 4.4
2020-Jan-24 05:30 009 4 gusting 5 5.6 5.0
2020-Jan-24 05:24 014 3 gusting 4 5.6 5.0
2020-Jan-24 05:18 036 3 gusting 6 6.7 5.0
2020-Jan-24 05:12 043 4 gusting 6 6.7 5.0
2020-Jan-24 05:06 037 4 gusting 6 6.7 5.0
2020-Jan-24 05:00 049 3 gusting 6 7.2 5.0
2020-Jan-24 04:54 044 2 gusting 5 7.2 5.0
2020-Jan-24 04:48 036 3 gusting 5 7.2 5.0
2020-Jan-24 04:42 043 3 gusting 6 7.2 5.0
2020-Jan-24 04:36 046 3 gusting 6 7.2 5.0
2020-Jan-24 04:30 064 2 gusting 4 6.7 5.0
2020-Jan-24 04:24 050 2 gusting 5 6.7 5.0
2020-Jan-24 04:18 053 3 gusting 6 6.7 5.0
2020-Jan-24 04:12 063 3 gusting 6 6.7 5.0
2020-Jan-24 04:06 066 5 gusting 7 7.2 5.0
2020-Jan-24 04:00 070 5 gusting 8 6.7 5.0
2020-Jan-24 03:54 070 3 gusting 5 6.7 5.0
2020-Jan-24 03:48 065 4 gusting 6 6.7 5.0
2020-Jan-24 03:42 051 4 gusting 6 6.7 5.0
2020-Jan-24 03:36 053 1 gusting 3 6.7 5.0
2020-Jan-24 03:30 063 3 gusting 5 6.7 5.0
2020-Jan-24 03:24 062 3 gusting 6 6.1 5.0
2020-Jan-24 03:18 069 4 gusting 6 6.1 5.0
2020-Jan-24 03:12 061 3 gusting 7 6.1 5.0
2020-Jan-24 03:06 051 3 gusting 4 5.6 5.0
2020-Jan-24 03:00 012 2 gusting 3 4.4 5.0
2020-Jan-24 02:54 018 3 gusting 3 4.4 5.0
2020-Jan-24 02:48 016 3 gusting 4 4.4 5.0
2020-Jan-24 02:42 012 3 gusting 4 4.4 5.0
2020-Jan-24 02:36 025 2 gusting 4 4.4 5.0
2020-Jan-24 02:30 022 4 gusting 5 4.4 5.0
2020-Jan-24 02:24 017 3 gusting 4 4.4 5.0
2020-Jan-24 02:18 015 3 gusting 5 4.4 5.0
2020-Jan-24 02:12 010 3 gusting 4 4.4 5.0
2020-Jan-24 02:06 009 3 gusting 4 4.4 5.0
2020-Jan-24 02:00 022 3 gusting 4 4.4 5.0
2020-Jan-24 01:54 020 3 gusting 4 4.4 5.0
2020-Jan-24 01:48 017 3 gusting 5 4.4 5.0
2020-Jan-24 01:42 016 4 gusting 5 3.9 5.0
2020-Jan-24 01:36 014 4 gusting 5 3.9 5.0
2020-Jan-24 01:30 018 5 gusting 6 3.9 5.0
2020-Jan-24 01:24 021 5 gusting 6 3.9 5.0
2020-Jan-24 01:18 022 4 gusting 5 3.9 5.0
2020-Jan-24 01:12 026 4 gusting 6 3.9 5.0
2020-Jan-24 01:06 026 3 gusting 5 3.9 5.0
2020-Jan-24 01:00 021 5 gusting 6 3.9 5.0
2020-Jan-24 00:54 016 5 gusting 6 3.9 5.0
2020-Jan-24 00:48 020 6 gusting 7 3.9 5.0
2020-Jan-24 00:42 014 5 gusting 6 3.9 5.0
2020-Jan-24 00:36 013 5 gusting 6 3.9 5.0
2020-Jan-24 00:30 014 5 gusting 6 3.9 5.0
2020-Jan-24 00:24 012 6 gusting 7 3.9 5.0
2020-Jan-24 00:18 018 5 gusting 6 3.9 5.0
2020-Jan-24 00:12 003 6 gusting 7 3.9 5.0
2020-Jan-24 00:06 006 5 gusting 6 3.9 5.0
2020-Jan-24 00:00 005 6 gusting 7 3.9 5.0
2020-Jan-23 23:42 005 5 gusting 6 3.9 5.0
2020-Jan-23 23:36 003 6 gusting 6 3.9 5.0
2020-Jan-23 23:30 006 6 gusting 6 3.9 5.0
2020-Jan-23 23:24 004 6 gusting 7 3.9 5.0
2020-Jan-23 23:18 007 6 gusting 7 4.4 5.0
2020-Jan-23 23:12 004 6 gusting 7 4.4 5.0
2020-Jan-23 23:06 014 5 gusting 6 4.4 5.0
2020-Jan-23 23:00 352 6 gusting 7 4.4 5.0
2020-Jan-23 22:54 016 5 gusting 6 4.4 5.0
2020-Jan-23 22:48 025 4 gusting 6 4.4 5.0
2020-Jan-23 22:42 021 4 gusting 6 4.4 5.0
2020-Jan-23 22:36 020 5 gusting 6 4.4 5.0
2020-Jan-23 22:30 034 6 gusting 7 4.4 5.0
2020-Jan-23 22:24 014 5 gusting 6 4.4 4.4
2020-Jan-23 22:18 032 5 gusting 7 4.4 4.4
2020-Jan-23 22:12 033 5 gusting 6 4.4 4.4
2020-Jan-23 22:06 031 4 gusting 6 4.4 4.4
2020-Jan-23 22:00 030 4 gusting 6 4.4 3.9
2020-Jan-23 21:54 009 5 gusting 6 4.4 3.9
2020-Jan-23 21:48 4.4 3.9
2020-Jan-23 21:42 017 5 gusting 6 3.9 3.9
2020-Jan-23 21:36 023 3 gusting 5 4.4 4.4
2020-Jan-23 21:30 015 5 gusting 6 4.4 4.4
2020-Jan-23 21:24 031 4 gusting 6 4.4 4.4
2020-Jan-23 21:18 014 5 gusting 6 4.4 4.4
2020-Jan-23 21:12 025 5 gusting 8 4.4 4.4
2020-Jan-23 21:06 006 6 gusting 7 4.4 4.4
2020-Jan-23 21:00 007 6 gusting 7 4.4 4.4
2020-Jan-23 20:54 015 6 gusting 8 4.4 4.4
2020-Jan-23 20:48 012 6 gusting 7 4.4 4.4
2020-Jan-23 20:42 014 6 gusting 8 4.4 4.4
2020-Jan-23 20:36 010 6 gusting 8 4.4 4.4
2020-Jan-23 20:30 020 5 gusting 6 4.4 4.4
2020-Jan-23 20:24 356 7 gusting 8 4.4 4.4
2020-Jan-23 20:18 006 6 gusting 7 3.9 4.4
2020-Jan-23 20:12 007 6 gusting 6 3.9 4.4
2020-Jan-23 20:06 009 6 gusting 7 3.9 4.4
2020-Jan-23 20:00 019 4 gusting 6 4.4 4.4
2020-Jan-23 19:54 009 6 gusting 8 4.4 4.4
2020-Jan-23 19:48 010 6 gusting 7 4.4 4.4
2020-Jan-23 19:42 016 6 gusting 7 4.4 4.4
2020-Jan-23 19:36 022 5 gusting 8 4.4 4.4
2020-Jan-23 19:30 020 6 gusting 7 5.0 5.0
2020-Jan-23 19:24 032 6 gusting 10 5.0 5.0
2020-Jan-23 19:18 025 6 gusting 9 5.0 5.0
2020-Jan-23 19:12 025 6 gusting 9 5.6 5.0
2020-Jan-23 19:06 062 3 gusting 7 5.6 5.0
2020-Jan-23 19:00 036 6 gusting 11 5.0 5.0
2020-Jan-23 18:54 043 6 gusting 9 5.0 5.0
2020-Jan-23 18:48 045 3 gusting 6 5.6 5.0
2020-Jan-23 18:42 034 8 gusting 11 5.0 5.0
2020-Jan-23 18:36 028 7 gusting 10 5.0 5.0
2020-Jan-23 18:30 034 6 gusting 9 5.0 5.0
2020-Jan-23 18:24 031 6 gusting 11 5.0 5.0
2020-Jan-23 18:18 034 8 gusting 13 5.0 5.0
2020-Jan-23 18:12 037 6 gusting 11 5.6 5.0
2020-Jan-23 18:06 035 5 gusting 9 5.6 5.0
2020-Jan-23 18:00 036 5 gusting 8 5.6 5.0
2020-Jan-23 17:54 026 6 gusting 8 5.6 5.0
2020-Jan-23 17:48 025 7 gusting 11 5.0 5.0
2020-Jan-23 17:42 035 6 gusting 9 5.6 5.0
2020-Jan-23 17:36 029 6 gusting 10 5.0 5.0
2020-Jan-23 17:30 032 6 gusting 8 5.0 5.0
2020-Jan-23 17:24 024 6 gusting 9 4.4 5.0
2020-Jan-23 17:18 026 6 gusting 8 5.0 5.0
2020-Jan-23 17:12 016 6 gusting 9 5.0 5.0
2020-Jan-23 17:06 026 6 gusting 9 4.4 5.0
2020-Jan-23 17:00 023 5 gusting 6 5.0 5.0
2020-Jan-23 16:54 020 6 gusting 9 5.6 5.0
2020-Jan-23 16:48 031 6 gusting 8 5.6 5.0
2020-Jan-23 16:42 029 6 gusting 9 5.6 5.0
2020-Jan-23 16:36 029 6 gusting 10 5.6 5.0
2020-Jan-23 16:30 029 6 gusting 11 5.6 5.0
2020-Jan-23 16:24 031 5 gusting 7 5.6 5.0
2020-Jan-23 16:18 061 3 gusting 8 5.6 5.0
2020-Jan-23 16:12 049 3 gusting 9 5.6 5.0
2020-Jan-23 16:06 042 5 gusting 8 5.6 5.0
2020-Jan-23 16:00 036 5 gusting 9 5.6 5.0
2020-Jan-23 15:54 034 6 gusting 8 5.6 5.0
2020-Jan-23 15:48 065 5 gusting 7 5.6 5.0
2020-Jan-23 15:42 049 5 gusting 7 5.6 5.0
2020-Jan-23 15:36 041 4 gusting 8 5.6 5.0
2020-Jan-23 15:30 071 3 gusting 5 5.6 4.4
2020-Jan-23 15:24 064 3 gusting 7 5.6 5.0
2020-Jan-23 15:18 076 5 gusting 10 5.6 4.4
2020-Jan-23 15:12 068 3 gusting 7 5.6 4.4
2020-Jan-23 15:06 071 4 gusting 8 5.0 4.4
2020-Jan-23 15:00 073 5 gusting 9 5.0 4.4
2020-Jan-23 14:54 076 5 gusting 10 5.0 4.4
2020-Jan-23 14:48 079 2 gusting 5 5.0 4.4
2020-Jan-23 14:42 076 4 gusting 7 5.0 4.4
2020-Jan-23 14:36 055 2 gusting 6 4.4 4.4
2020-Jan-23 14:30 071 3 gusting 6 4.4 4.4
2020-Jan-23 14:24 042 4 gusting 6 4.4 4.4
2020-Jan-23 14:18 077 3 gusting 6 4.4 4.4
2020-Jan-23 14:12 051 4 gusting 6 4.4 4.4
2020-Jan-23 14:06 054 3 gusting 6 4.4 4.4
2020-Jan-23 14:00 044 2 gusting 5 4.4 4.4
2020-Jan-23 13:54 065 3 gusting 6 4.4 4.4
2020-Jan-23 13:48 068 5 gusting 9 4.4 4.4
2020-Jan-23 13:42 064 2 gusting 5 4.4 4.4
2020-Jan-23 13:36 044 3 gusting 6 4.4 4.4
2020-Jan-23 13:30 042 3 gusting 6 3.9 4.4
2020-Jan-23 13:24 040 3 gusting 6 3.9 4.4
2020-Jan-23 13:18 037 3 gusting 6 3.3 4.4
2020-Jan-23 13:12 030 3 gusting 6 2.8 4.4
2020-Jan-23 13:06 028 5 gusting 6 2.8 4.4
2020-Jan-23 13:00 026 4 gusting 6 2.2 4.4